sensor_id;sensor_type;location;lat;lon;timestamp;P1;durP1;ratioP1;P2;durP2;ratioP2
71383;SDS011;67558;52.166;5.004;2023-08-07T00:01:41;19.08;;;18.17;;
71383;SDS011;67558;52.166;5.004;2023-08-07T00:04:06;20.80;;;19.50;;
71383;SDS011;67558;52.166;5.004;2023-08-07T00:06:32;21.30;;;20.08;;
71383;SDS011;67558;52.166;5.004;2023-08-07T00:08:57;17.73;;;16.45;;
71383;SDS011;67558;52.166;5.004;2023-08-07T00:11:22;17.13;;;16.08;;
71383;SDS011;67558;52.166;5.004;2023-08-07T00:13:48;18.67;;;17.48;;
71383;SDS011;67558;52.166;5.004;2023-08-07T00:16:13;20.58;;;19.50;;
71383;SDS011;67558;52.166;5.004;2023-08-07T00:18:38;17.95;;;16.88;;
71383;SDS011;67558;52.166;5.004;2023-08-07T00:21:04;18.40;;;17.02;;
71383;SDS011;67558;52.166;5.004;2023-08-07T00:23:29;17.25;;;16.15;;
71383;SDS011;67558;52.166;5.004;2023-08-07T00:25:54;20.23;;;19.10;;
71383;SDS011;67558;52.166;5.004;2023-08-07T00:28:20;20.25;;;19.20;;
71383;SDS011;67558;52.166;5.004;2023-08-07T00:30:45;19.02;;;18.08;;
71383;SDS011;67558;52.166;5.004;2023-08-07T00:33:10;21.23;;;20.33;;
71383;SDS011;67558;52.166;5.004;2023-08-07T00:35:36;18.17;;;16.65;;
71383;SDS011;67558;52.166;5.004;2023-08-07T00:38:01;19.73;;;18.83;;
71383;SDS011;67558;52.166;5.004;2023-08-07T00:40:27;19.52;;;18.42;;
71383;SDS011;67558;52.166;5.004;2023-08-07T00:42:52;19.30;;;18.17;;
71383;SDS011;67558;52.166;5.004;2023-08-07T00:45:18;19.45;;;18.35;;
71383;SDS011;67558;52.166;5.004;2023-08-07T00:47:43;17.25;;;16.35;;
71383;SDS011;67558;52.166;5.004;2023-08-07T00:50:09;17.98;;;17.08;;
71383;SDS011;67558;52.166;5.004;2023-08-07T00:52:35;16.83;;;16.13;;
71383;SDS011;67558;52.166;5.004;2023-08-07T00:55:01;20.67;;;19.40;;
71383;SDS011;67558;52.166;5.004;2023-08-07T00:57:26;21.08;;;19.88;;
71383;SDS011;67558;52.166;5.004;2023-08-07T00:59:53;19.02;;;17.98;;
71383;SDS011;67558;52.166;5.004;2023-08-07T01:02:19;18.50;;;17.48;;
71383;SDS011;67558;52.166;5.004;2023-08-07T01:04:44;16.27;;;15.48;;
71383;SDS011;67558;52.166;5.004;2023-08-07T01:07:10;18.15;;;16.98;;
71383;SDS011;67558;52.166;5.004;2023-08-07T01:09:35;18.10;;;17.33;;
71383;SDS011;67558;52.166;5.004;2023-08-07T01:17:31;18.90;;;17.80;;
71383;SDS011;67558;52.166;5.004;2023-08-07T01:19:58;17.45;;;16.60;;
71383;SDS011;67558;52.166;5.004;2023-08-07T01:22:24;19.17;;;18.30;;
71383;SDS011;67558;52.166;5.004;2023-08-07T01:24:50;24.67;;;23.60;;
71383;SDS011;67558;52.166;5.004;2023-08-07T01:32:39;18.98;;;18.05;;
71383;SDS011;67558;52.166;5.004;2023-08-07T01:35:11;17.15;;;16.40;;
71383;SDS011;67558;52.166;5.004;2023-08-07T01:37:39;20.13;;;19.23;;
71383;SDS011;67558;52.166;5.004;2023-08-07T01:40:07;22.83;;;21.98;;
71383;SDS011;67558;52.166;5.004;2023-08-07T01:42:35;17.10;;;16.50;;
71383;SDS011;67558;52.166;5.004;2023-08-07T01:45:01;16.55;;;15.80;;
71383;SDS011;67558;52.166;5.004;2023-08-07T01:47:27;18.80;;;17.48;;
71383;SDS011;67558;52.166;5.004;2023-08-07T01:49:52;19.75;;;19.00;;
71383;SDS011;67558;52.166;5.004;2023-08-07T01:52:18;16.52;;;15.82;;
71383;SDS011;67558;52.166;5.004;2023-08-07T01:54:44;15.55;;;14.60;;
71383;SDS011;67558;52.166;5.004;2023-08-07T01:57:10;19.48;;;18.52;;
71383;SDS011;67558;52.166;5.004;2023-08-07T01:59:35;17.52;;;16.83;;
71383;SDS011;67558;52.166;5.004;2023-08-07T02:02:00;19.58;;;18.25;;
71383;SDS011;67558;52.166;5.004;2023-08-07T02:04:26;19.08;;;18.02;;
71383;SDS011;67558;52.166;5.004;2023-08-07T02:06:51;18.67;;;17.35;;
71383;SDS011;67558;52.166;5.004;2023-08-07T02:09:17;21.10;;;19.23;;
71383;SDS011;67558;52.166;5.004;2023-08-07T02:11:42;17.65;;;16.73;;
71383;SDS011;67558;52.166;5.004;2023-08-07T02:14:07;18.95;;;18.00;;
71383;SDS011;67558;52.166;5.004;2023-08-07T02:16:33;18.17;;;17.17;;
71383;SDS011;67558;52.166;5.004;2023-08-07T02:18:58;19.63;;;18.52;;
71383;SDS011;67558;52.166;5.004;2023-08-07T02:21:24;19.08;;;17.77;;
71383;SDS011;67558;52.166;5.004;2023-08-07T02:23:49;17.55;;;16.95;;
71383;SDS011;67558;52.166;5.004;2023-08-07T02:26:14;17.13;;;16.42;;
71383;SDS011;67558;52.166;5.004;2023-08-07T02:28:40;20.80;;;19.58;;
71383;SDS011;67558;52.166;5.004;2023-08-07T02:31:05;21.48;;;20.60;;
71383;SDS011;67558;52.166;5.004;2023-08-07T02:33:30;21.77;;;21.02;;
71383;SDS011;67558;52.166;5.004;2023-08-07T02:35:56;19.15;;;18.27;;
71383;SDS011;67558;52.166;5.004;2023-08-07T02:38:22;21.33;;;19.92;;
71383;SDS011;67558;52.166;5.004;2023-08-07T02:40:47;18.35;;;17.20;;
71383;SDS011;67558;52.166;5.004;2023-08-07T02:43:12;19.40;;;18.58;;
71383;SDS011;67558;52.166;5.004;2023-08-07T02:45:38;19.92;;;18.65;;
71383;SDS011;67558;52.166;5.004;2023-08-07T02:48:03;18.23;;;17.10;;
71383;SDS011;67558;52.166;5.004;2023-08-07T02:50:29;17.90;;;17.25;;
71383;SDS011;67558;52.166;5.004;2023-08-07T02:52:57;19.08;;;17.83;;
71383;SDS011;67558;52.166;5.004;2023-08-07T02:55:23;22.98;;;21.73;;
71383;SDS011;67558;52.166;5.004;2023-08-07T02:57:48;17.75;;;16.65;;
71383;SDS011;67558;52.166;5.004;2023-08-07T03:00:13;17.65;;;16.98;;
71383;SDS011;67558;52.166;5.004;2023-08-07T03:02:39;20.50;;;19.42;;
71383;SDS011;67558;52.166;5.004;2023-08-07T03:05:04;19.08;;;18.30;;
71383;SDS011;67558;52.166;5.004;2023-08-07T03:07:30;18.75;;;17.85;;
71383;SDS011;67558;52.166;5.004;2023-08-07T03:09:55;17.80;;;17.00;;
71383;SDS011;67558;52.166;5.004;2023-08-07T03:12:20;18.35;;;17.65;;
71383;SDS011;67558;52.166;5.004;2023-08-07T03:14:46;18.98;;;18.00;;
71383;SDS011;67558;52.166;5.004;2023-08-07T03:17:11;19.33;;;18.23;;
71383;SDS011;67558;52.166;5.004;2023-08-07T03:19:37;20.67;;;19.85;;
71383;SDS011;67558;52.166;5.004;2023-08-07T03:22:02;17.75;;;17.10;;
71383;SDS011;67558;52.166;5.004;2023-08-07T03:24:28;18.80;;;17.73;;
71383;SDS011;67558;52.166;5.004;2023-08-07T03:26:53;17.15;;;16.35;;
71383;SDS011;67558;52.166;5.004;2023-08-07T03:29:18;20.95;;;20.23;;
71383;SDS011;67558;52.166;5.004;2023-08-07T03:31:44;19.05;;;18.17;;
71383;SDS011;67558;52.166;5.004;2023-08-07T03:34:09;17.90;;;16.77;;
71383;SDS011;67558;52.166;5.004;2023-08-07T03:36:34;22.70;;;21.52;;
71383;SDS011;67558;52.166;5.004;2023-08-07T03:39:00;21.13;;;19.92;;
71383;SDS011;67558;52.166;5.004;2023-08-07T03:41:25;19.55;;;18.73;;
71383;SDS011;67558;52.166;5.004;2023-08-07T03:43:51;20.33;;;19.42;;
71383;SDS011;67558;52.166;5.004;2023-08-07T03:46:17;21.67;;;20.25;;
71383;SDS011;67558;52.166;5.004;2023-08-07T03:48:42;19.65;;;18.63;;
71383;SDS011;67558;52.166;5.004;2023-08-07T03:51:07;17.73;;;16.92;;
71383;SDS011;67558;52.166;5.004;2023-08-07T03:53:33;19.60;;;18.10;;
71383;SDS011;67558;52.166;5.004;2023-08-07T03:56:00;18.48;;;17.40;;
71383;SDS011;67558;52.166;5.004;2023-08-07T03:58:25;17.83;;;17.00;;
71383;SDS011;67558;52.166;5.004;2023-08-07T04:00:51;19.20;;;18.27;;
71383;SDS011;67558;52.166;5.004;2023-08-07T04:03:17;18.73;;;17.92;;
71383;SDS011;67558;52.166;5.004;2023-08-07T04:05:43;19.50;;;18.70;;
71383;SDS011;67558;52.166;5.004;2023-08-07T04:08:09;18.38;;;17.48;;
71383;SDS011;67558;52.166;5.004;2023-08-07T04:10:34;19.27;;;18.30;;
71383;SDS011;67558;52.166;5.004;2023-08-07T04:12:59;17.30;;;16.45;;
71383;SDS011;67558;52.166;5.004;2023-08-07T04:15:25;18.17;;;17.15;;
71383;SDS011;67558;52.166;5.004;2023-08-07T04:17:50;18.30;;;17.02;;
71383;SDS011;67558;52.166;5.004;2023-08-07T04:20:16;20.38;;;19.35;;
71383;SDS011;67558;52.166;5.004;2023-08-07T04:22:41;18.13;;;17.08;;
71383;SDS011;67558;52.166;5.004;2023-08-07T04:25:07;17.38;;;16.58;;
71383;SDS011;67558;52.166;5.004;2023-08-07T04:27:33;18.13;;;17.30;;
71383;SDS011;67558;52.166;5.004;2023-08-07T04:29:58;19.35;;;18.20;;
71383;SDS011;67558;52.166;5.004;2023-08-07T04:32:23;20.90;;;19.70;;
71383;SDS011;67558;52.166;5.004;2023-08-07T04:34:49;18.63;;;17.90;;
71383;SDS011;67558;52.166;5.004;2023-08-07T04:37:14;19.13;;;18.00;;
71383;SDS011;67558;52.166;5.004;2023-08-07T04:39:39;19.90;;;18.83;;
71383;SDS011;67558;52.166;5.004;2023-08-07T04:42:05;17.60;;;16.90;;
71383;SDS011;67558;52.166;5.004;2023-08-07T04:44:30;22.83;;;21.23;;
71383;SDS011;67558;52.166;5.004;2023-08-07T04:46:56;18.33;;;17.33;;
71383;SDS011;67558;52.166;5.004;2023-08-07T04:49:21;20.40;;;19.00;;
71383;SDS011;67558;52.166;5.004;2023-08-07T04:51:47;18.60;;;17.60;;
71383;SDS011;67558;52.166;5.004;2023-08-07T04:54:12;19.55;;;18.48;;
71383;SDS011;67558;52.166;5.004;2023-08-07T04:56:37;22.42;;;21.30;;
71383;SDS011;67558;52.166;5.004;2023-08-07T04:59:03;16.05;;;15.05;;
71383;SDS011;67558;52.166;5.004;2023-08-07T05:01:28;18.15;;;17.35;;
71383;SDS011;67558;52.166;5.004;2023-08-07T05:03:53;20.88;;;19.70;;
71383;SDS011;67558;52.166;5.004;2023-08-07T05:06:19;19.30;;;18.45;;
71383;SDS011;67558;52.166;5.004;2023-08-07T05:08:44;21.27;;;20.02;;
71383;SDS011;67558;52.166;5.004;2023-08-07T05:11:09;21.77;;;20.45;;
71383;SDS011;67558;52.166;5.004;2023-08-07T05:13:35;22.10;;;21.02;;
71383;SDS011;67558;52.166;5.004;2023-08-07T05:16:00;19.65;;;18.65;;
71383;SDS011;67558;52.166;5.004;2023-08-07T05:18:26;21.08;;;19.88;;
71383;SDS011;67558;52.166;5.004;2023-08-07T05:20:51;19.88;;;18.63;;
71383;SDS011;67558;52.166;5.004;2023-08-07T05:23:16;19.77;;;18.63;;
71383;SDS011;67558;52.166;5.004;2023-08-07T05:25:44;20.20;;;19.35;;
71383;SDS011;67558;52.166;5.004;2023-08-07T05:28:11;18.85;;;18.00;;
71383;SDS011;67558;52.166;5.004;2023-08-07T05:30:36;21.65;;;20.70;;
71383;SDS011;67558;52.166;5.004;2023-08-07T05:33:02;20.90;;;19.33;;
71383;SDS011;67558;52.166;5.004;2023-08-07T05:35:27;19.50;;;18.23;;
71383;SDS011;67558;52.166;5.004;2023-08-07T05:37:53;23.42;;;22.02;;
71383;SDS011;67558;52.166;5.004;2023-08-07T05:40:18;20.85;;;19.92;;
71383;SDS011;67558;52.166;5.004;2023-08-07T05:42:44;22.95;;;21.65;;
71383;SDS011;67558;52.166;5.004;2023-08-07T05:45:09;20.92;;;19.80;;
71383;SDS011;67558;52.166;5.004;2023-08-07T05:47:35;20.08;;;18.42;;
71383;SDS011;67558;52.166;5.004;2023-08-07T05:50:01;20.90;;;19.95;;
71383;SDS011;67558;52.166;5.004;2023-08-07T05:52:27;20.80;;;19.02;;
71383;SDS011;67558;52.166;5.004;2023-08-07T05:54:52;23.35;;;22.38;;
71383;SDS011;67558;52.166;5.004;2023-08-07T05:57:17;17.45;;;16.58;;
71383;SDS011;67558;52.166;5.004;2023-08-07T05:59:43;20.98;;;19.83;;
71383;SDS011;67558;52.166;5.004;2023-08-07T06:02:08;18.30;;;17.60;;
71383;SDS011;67558;52.166;5.004;2023-08-07T06:04:36;27.15;;;25.95;;
71383;SDS011;67558;52.166;5.004;2023-08-07T06:07:01;18.00;;;17.10;;
71383;SDS011;67558;52.166;5.004;2023-08-07T06:09:26;20.20;;;18.83;;
71383;SDS011;67558;52.166;5.004;2023-08-07T06:11:52;18.75;;;17.80;;
71383;SDS011;67558;52.166;5.004;2023-08-07T06:14:18;22.70;;;21.17;;
71383;SDS011;67558;52.166;5.004;2023-08-07T06:16:43;17.55;;;16.67;;
71383;SDS011;67558;52.166;5.004;2023-08-07T06:19:08;23.15;;;21.98;;
71383;SDS011;67558;52.166;5.004;2023-08-07T06:21:34;20.33;;;19.15;;
71383;SDS011;67558;52.166;5.004;2023-08-07T06:23:59;19.75;;;18.70;;
71383;SDS011;67558;52.166;5.004;2023-08-07T06:26:24;20.02;;;19.15;;
71383;SDS011;67558;52.166;5.004;2023-08-07T06:28:50;20.58;;;19.58;;
71383;SDS011;67558;52.166;5.004;2023-08-07T06:31:15;19.83;;;18.63;;
71383;SDS011;67558;52.166;5.004;2023-08-07T06:33:41;21.10;;;20.10;;
71383;SDS011;67558;52.166;5.004;2023-08-07T06:36:07;23.27;;;22.38;;
71383;SDS011;67558;52.166;5.004;2023-08-07T06:38:36;21.42;;;20.08;;
71383;SDS011;67558;52.166;5.004;2023-08-07T06:41:01;24.95;;;23.95;;
71383;SDS011;67558;52.166;5.004;2023-08-07T06:43:27;24.80;;;23.83;;
71383;SDS011;67558;52.166;5.004;2023-08-07T06:45:56;27.58;;;26.33;;
71383;SDS011;67558;52.166;5.004;2023-08-07T06:48:22;24.48;;;23.15;;
71383;SDS011;67558;52.166;5.004;2023-08-07T06:50:47;25.23;;;24.23;;
71383;SDS011;67558;52.166;5.004;2023-08-07T06:53:14;26.05;;;24.85;;
71383;SDS011;67558;52.166;5.004;2023-08-07T06:55:43;26.50;;;25.45;;
71383;SDS011;67558;52.166;5.004;2023-08-07T06:58:09;24.80;;;23.77;;
71383;SDS011;67558;52.166;5.004;2023-08-07T07:00:35;23.63;;;22.65;;
71383;SDS011;67558;52.166;5.004;2023-08-07T07:03:01;26.55;;;25.45;;
71383;SDS011;67558;52.166;5.004;2023-08-07T07:05:27;24.27;;;22.88;;
71383;SDS011;67558;52.166;5.004;2023-08-07T07:07:52;24.25;;;22.95;;
71383;SDS011;67558;52.166;5.004;2023-08-07T07:10:19;25.20;;;24.15;;
71383;SDS011;67558;52.166;5.004;2023-08-07T07:12:45;25.77;;;24.25;;
71383;SDS011;67558;52.166;5.004;2023-08-07T07:15:10;23.73;;;22.10;;
71383;SDS011;67558;52.166;5.004;2023-08-07T07:17:35;20.75;;;19.58;;
71383;SDS011;67558;52.166;5.004;2023-08-07T07:20:01;23.70;;;22.60;;
71383;SDS011;67558;52.166;5.004;2023-08-07T07:22:26;20.52;;;19.63;;
71383;SDS011;67558;52.166;5.004;2023-08-07T07:24:53;21.15;;;20.17;;
71383;SDS011;67558;52.166;5.004;2023-08-07T07:27:19;26.23;;;24.98;;
71383;SDS011;67558;52.166;5.004;2023-08-07T07:29:44;21.63;;;20.73;;
71383;SDS011;67558;52.166;5.004;2023-08-07T07:32:09;25.00;;;23.40;;
71383;SDS011;67558;52.166;5.004;2023-08-07T07:34:35;23.77;;;22.55;;
71383;SDS011;67558;52.166;5.004;2023-08-07T07:37:00;23.23;;;21.67;;
71383;SDS011;67558;52.166;5.004;2023-08-07T07:39:25;23.77;;;22.58;;
71383;SDS011;67558;52.166;5.004;2023-08-07T07:41:51;22.05;;;21.25;;
71383;SDS011;67558;52.166;5.004;2023-08-07T07:44:16;24.60;;;23.70;;
71383;SDS011;67558;52.166;5.004;2023-08-07T07:46:41;26.30;;;25.30;;
71383;SDS011;67558;52.166;5.004;2023-08-07T07:49:07;22.50;;;21.30;;
71383;SDS011;67558;52.166;5.004;2023-08-07T07:51:32;26.27;;;25.15;;
71383;SDS011;67558;52.166;5.004;2023-08-07T07:53:58;24.52;;;23.33;;
71383;SDS011;67558;52.166;5.004;2023-08-07T07:56:24;24.48;;;22.77;;
71383;SDS011;67558;52.166;5.004;2023-08-07T07:58:49;26.27;;;24.98;;
71383;SDS011;67558;52.166;5.004;2023-08-07T08:01:14;25.73;;;24.33;;
71383;SDS011;67558;52.166;5.004;2023-08-07T08:03:40;24.52;;;23.35;;
71383;SDS011;67558;52.166;5.004;2023-08-07T08:06:05;30.15;;;29.02;;
71383;SDS011;67558;52.166;5.004;2023-08-07T08:08:31;25.20;;;24.08;;
71383;SDS011;67558;52.166;5.004;2023-08-07T08:10:56;25.33;;;23.95;;
71383;SDS011;67558;52.166;5.004;2023-08-07T08:13:21;25.40;;;24.20;;
71383;SDS011;67558;52.166;5.004;2023-08-07T08:15:47;26.70;;;25.70;;
71383;SDS011;67558;52.166;5.004;2023-08-07T08:18:12;24.05;;;23.00;;
71383;SDS011;67558;52.166;5.004;2023-08-07T08:20:38;29.55;;;27.98;;
71383;SDS011;67558;52.166;5.004;2023-08-07T08:23:04;26.02;;;24.55;;
71383;SDS011;67558;52.166;5.004;2023-08-07T08:25:29;25.85;;;24.75;;
71383;SDS011;67558;52.166;5.004;2023-08-07T08:27:56;25.23;;;24.13;;
71383;SDS011;67558;52.166;5.004;2023-08-07T08:30:21;27.13;;;25.73;;
71383;SDS011;67558;52.166;5.004;2023-08-07T08:32:47;27.50;;;26.30;;
71383;SDS011;67558;52.166;5.004;2023-08-07T08:35:13;30.63;;;29.25;;
71383;SDS011;67558;52.166;5.004;2023-08-07T08:37:38;29.15;;;27.90;;
71383;SDS011;67558;52.166;5.004;2023-08-07T08:40:04;29.75;;;28.38;;
71383;SDS011;67558;52.166;5.004;2023-08-07T08:42:31;30.15;;;28.95;;
71383;SDS011;67558;52.166;5.004;2023-08-07T08:44:57;28.73;;;27.65;;
71383;SDS011;67558;52.166;5.004;2023-08-07T08:47:25;30.20;;;28.85;;
71383;SDS011;67558;52.166;5.004;2023-08-07T08:49:54;28.63;;;27.30;;
71383;SDS011;67558;52.166;5.004;2023-08-07T08:52:31;23.17;;;22.27;;
71383;SDS011;67558;52.166;5.004;2023-08-07T08:55:00;34.92;;;33.50;;
71383;SDS011;67558;52.166;5.004;2023-08-07T08:57:26;25.65;;;24.55;;
71383;SDS011;67558;52.166;5.004;2023-08-07T08:59:53;26.77;;;25.77;;
71383;SDS011;67558;52.166;5.004;2023-08-07T09:02:21;25.30;;;24.30;;
71383;SDS011;67558;52.166;5.004;2023-08-07T09:04:46;25.73;;;24.63;;
71383;SDS011;67558;52.166;5.004;2023-08-07T09:07:15;34.05;;;32.63;;
71383;SDS011;67558;52.166;5.004;2023-08-07T09:09:44;27.00;;;25.85;;
71383;SDS011;67558;52.166;5.004;2023-08-07T09:12:14;26.00;;;24.90;;
71383;SDS011;67558;52.166;5.004;2023-08-07T09:14:44;26.52;;;25.60;;
71383;SDS011;67558;52.166;5.004;2023-08-07T09:17:12;28.73;;;27.63;;
71383;SDS011;67558;52.166;5.004;2023-08-07T09:19:38;29.80;;;28.45;;
71383;SDS011;67558;52.166;5.004;2023-08-07T09:22:04;28.33;;;27.02;;
71383;SDS011;67558;52.166;5.004;2023-08-07T09:24:29;26.63;;;25.58;;
71383;SDS011;67558;52.166;5.004;2023-08-07T09:26:55;26.48;;;25.05;;
71383;SDS011;67558;52.166;5.004;2023-08-07T09:29:21;23.55;;;22.33;;
71383;SDS011;67558;52.166;5.004;2023-08-07T09:31:47;27.90;;;26.73;;
71383;SDS011;67558;52.166;5.004;2023-08-07T09:34:12;26.92;;;25.55;;
71383;SDS011;67558;52.166;5.004;2023-08-07T09:36:41;26.63;;;25.33;;
71383;SDS011;67558;52.166;5.004;2023-08-07T09:39:06;26.60;;;25.60;;
71383;SDS011;67558;52.166;5.004;2023-08-07T09:41:32;27.95;;;26.50;;
71383;SDS011;67558;52.166;5.004;2023-08-07T09:44:00;26.65;;;25.58;;
71383;SDS011;67558;52.166;5.004;2023-08-07T09:46:31;28.00;;;26.65;;
71383;SDS011;67558;52.166;5.004;2023-08-07T09:49:02;27.02;;;25.58;;
71383;SDS011;67558;52.166;5.004;2023-08-07T09:51:27;27.55;;;26.20;;
71383;SDS011;67558;52.166;5.004;2023-08-07T09:54:06;24.55;;;23.45;;
71383;SDS011;67558;52.166;5.004;2023-08-07T09:56:31;28.80;;;27.48;;
71383;SDS011;67558;52.166;5.004;2023-08-07T09:58:57;25.55;;;24.48;;
71383;SDS011;67558;52.166;5.004;2023-08-07T10:01:23;30.73;;;29.77;;
71383;SDS011;67558;52.166;5.004;2023-08-07T10:03:50;28.27;;;27.10;;
71383;SDS011;67558;52.166;5.004;2023-08-07T10:06:17;29.10;;;27.98;;
71383;SDS011;67558;52.166;5.004;2023-08-07T10:08:44;24.30;;;23.40;;
71383;SDS011;67558;52.166;5.004;2023-08-07T10:11:10;23.48;;;22.65;;
71383;SDS011;67558;52.166;5.004;2023-08-07T10:13:37;26.95;;;25.95;;
71383;SDS011;67558;52.166;5.004;2023-08-07T10:16:03;23.95;;;22.73;;
71383;SDS011;67558;52.166;5.004;2023-08-07T10:18:29;29.45;;;28.33;;
71383;SDS011;67558;52.166;5.004;2023-08-07T10:20:54;26.67;;;25.83;;
71383;SDS011;67558;52.166;5.004;2023-08-07T10:23:22;27.23;;;26.13;;
71383;SDS011;67558;52.166;5.004;2023-08-07T10:25:47;29.83;;;28.88;;
71383;SDS011;67558;52.166;5.004;2023-08-07T10:28:16;27.40;;;26.52;;
71383;SDS011;67558;52.166;5.004;2023-08-07T10:30:44;26.05;;;24.90;;
71383;SDS011;67558;52.166;5.004;2023-08-07T10:33:10;31.98;;;30.67;;
71383;SDS011;67558;52.166;5.004;2023-08-07T10:35:37;31.88;;;30.45;;
71383;SDS011;67558;52.166;5.004;2023-08-07T10:38:11;30.27;;;28.98;;
71383;SDS011;67558;52.166;5.004;2023-08-07T10:43:25;28.92;;;27.42;;
71383;SDS011;67558;52.166;5.004;2023-08-07T10:45:52;24.17;;;23.38;;
71383;SDS011;67558;52.166;5.004;2023-08-07T10:48:18;25.83;;;24.92;;
71383;SDS011;67558;52.166;5.004;2023-08-07T10:55:54;27.08;;;25.98;;
71383;SDS011;67558;52.166;5.004;2023-08-07T10:58:29;29.10;;;27.98;;
71383;SDS011;67558;52.166;5.004;2023-08-07T11:03:51;29.25;;;28.15;;
71383;SDS011;67558;52.166;5.004;2023-08-07T11:06:30;27.50;;;26.40;;
71383;SDS011;67558;52.166;5.004;2023-08-07T11:08:57;28.35;;;26.90;;
71383;SDS011;67558;52.166;5.004;2023-08-07T11:11:23;30.50;;;29.27;;
71383;SDS011;67558;52.166;5.004;2023-08-07T11:13:49;25.30;;;24.25;;
71383;SDS011;67558;52.166;5.004;2023-08-07T11:16:15;30.45;;;29.35;;
71383;SDS011;67558;52.166;5.004;2023-08-07T11:18:41;34.78;;;33.58;;
71383;SDS011;67558;52.166;5.004;2023-08-07T11:21:10;34.13;;;32.83;;
71383;SDS011;67558;52.166;5.004;2023-08-07T11:23:37;29.25;;;28.23;;
71383;SDS011;67558;52.166;5.004;2023-08-07T11:26:05;25.50;;;24.35;;
71383;SDS011;67558;52.166;5.004;2023-08-07T11:28:31;25.13;;;24.13;;
71383;SDS011;67558;52.166;5.004;2023-08-07T11:30:57;32.55;;;31.45;;
71383;SDS011;67558;52.166;5.004;2023-08-07T11:33:26;26.38;;;25.30;;
71383;SDS011;67558;52.166;5.004;2023-08-07T11:35:52;30.25;;;29.17;;
71383;SDS011;67558;52.166;5.004;2023-08-07T11:41:17;29.85;;;28.63;;
71383;SDS011;67558;52.166;5.004;2023-08-07T11:43:43;27.92;;;26.83;;
71383;SDS011;67558;52.166;5.004;2023-08-07T11:46:09;25.98;;;25.08;;
71383;SDS011;67558;52.166;5.004;2023-08-07T11:48:37;30.38;;;29.27;;
71383;SDS011;67558;52.166;5.004;2023-08-07T11:51:04;31.02;;;30.02;;
71383;SDS011;67558;52.166;5.004;2023-08-07T11:53:31;28.52;;;27.52;;
71383;SDS011;67558;52.166;5.004;2023-08-07T11:55:59;28.05;;;27.10;;
71383;SDS011;67558;52.166;5.004;2023-08-07T11:58:42;30.15;;;28.95;;
71383;SDS011;67558;52.166;5.004;2023-08-07T12:01:13;27.52;;;26.58;;
71383;SDS011;67558;52.166;5.004;2023-08-07T12:06:38;28.33;;;27.15;;
71383;SDS011;67558;52.166;5.004;2023-08-07T12:09:04;27.73;;;26.50;;
71383;SDS011;67558;52.166;5.004;2023-08-07T12:11:31;29.70;;;28.38;;
71383;SDS011;67558;52.166;5.004;2023-08-07T12:13:59;29.52;;;28.02;;
71383;SDS011;67558;52.166;5.004;2023-08-07T12:16:25;30.65;;;28.83;;
71383;SDS011;67558;52.166;5.004;2023-08-07T12:18:51;26.48;;;25.67;;
71383;SDS011;67558;52.166;5.004;2023-08-07T12:21:20;28.92;;;27.83;;
71383;SDS011;67558;52.166;5.004;2023-08-07T12:23:49;26.70;;;25.85;;
71383;SDS011;67558;52.166;5.004;2023-08-07T12:26:15;24.90;;;23.77;;
71383;SDS011;67558;52.166;5.004;2023-08-07T12:28:42;30.25;;;29.13;;
71383;SDS011;67558;52.166;5.004;2023-08-07T12:31:07;29.23;;;28.23;;
71383;SDS011;67558;52.166;5.004;2023-08-07T12:33:33;28.90;;;27.58;;
71383;SDS011;67558;52.166;5.004;2023-08-07T12:35:58;25.80;;;24.70;;
71383;SDS011;67558;52.166;5.004;2023-08-07T12:38:25;24.98;;;24.17;;
71383;SDS011;67558;52.166;5.004;2023-08-07T12:40:50;25.70;;;24.50;;
71383;SDS011;67558;52.166;5.004;2023-08-07T12:43:16;27.83;;;26.67;;
71383;SDS011;67558;52.166;5.004;2023-08-07T12:45:41;29.95;;;28.42;;
71383;SDS011;67558;52.166;5.004;2023-08-07T12:48:07;29.75;;;28.75;;
71383;SDS011;67558;52.166;5.004;2023-08-07T12:50:33;28.08;;;27.23;;
71383;SDS011;67558;52.166;5.004;2023-08-07T12:52:58;29.42;;;28.48;;
71383;SDS011;67558;52.166;5.004;2023-08-07T12:55:24;28.73;;;27.70;;
71383;SDS011;67558;52.166;5.004;2023-08-07T12:57:49;28.45;;;27.42;;
71383;SDS011;67558;52.166;5.004;2023-08-07T13:00:15;31.17;;;30.08;;
71383;SDS011;67558;52.166;5.004;2023-08-07T13:02:41;33.10;;;32.17;;
71383;SDS011;67558;52.166;5.004;2023-08-07T13:05:08;31.10;;;29.95;;
71383;SDS011;67558;52.166;5.004;2023-08-07T13:07:34;31.35;;;30.35;;
71383;SDS011;67558;52.166;5.004;2023-08-07T13:10:00;29.95;;;29.02;;
71383;SDS011;67558;52.166;5.004;2023-08-07T13:12:26;26.38;;;25.45;;
71383;SDS011;67558;52.166;5.004;2023-08-07T13:14:51;28.35;;;27.27;;
71383;SDS011;67558;52.166;5.004;2023-08-07T13:17:17;31.33;;;30.25;;
71383;SDS011;67558;52.166;5.004;2023-08-07T13:19:42;30.90;;;29.80;;
71383;SDS011;67558;52.166;5.004;2023-08-07T13:22:07;28.92;;;28.02;;
71383;SDS011;67558;52.166;5.004;2023-08-07T13:24:33;26.48;;;25.40;;
71383;SDS011;67558;52.166;5.004;2023-08-07T13:26:58;29.25;;;28.08;;
71383;SDS011;67558;52.166;5.004;2023-08-07T13:29:23;27.42;;;26.52;;
71383;SDS011;67558;52.166;5.004;2023-08-07T13:31:51;26.48;;;25.55;;
71383;SDS011;67558;52.166;5.004;2023-08-07T13:34:16;29.27;;;27.83;;
71383;SDS011;67558;52.166;5.004;2023-08-07T13:36:42;30.60;;;29.60;;
71383;SDS011;67558;52.166;5.004;2023-08-07T13:39:07;28.55;;;27.58;;
71383;SDS011;67558;52.166;5.004;2023-08-07T13:41:34;28.42;;;27.50;;
71383;SDS011;67558;52.166;5.004;2023-08-07T13:43:59;31.05;;;29.83;;
71383;SDS011;67558;52.166;5.004;2023-08-07T13:46:25;26.80;;;25.90;;
71383;SDS011;67558;52.166;5.004;2023-08-07T13:48:51;28.17;;;27.17;;
71383;SDS011;67558;52.166;5.004;2023-08-07T13:51:16;32.97;;;31.55;;
71383;SDS011;67558;52.166;5.004;2023-08-07T13:53:42;29.65;;;28.65;;
71383;SDS011;67558;52.166;5.004;2023-08-07T13:56:09;26.23;;;25.30;;
71383;SDS011;67558;52.166;5.004;2023-08-07T13:58:37;27.67;;;26.88;;
71383;SDS011;67558;52.166;5.004;2023-08-07T14:01:04;25.85;;;24.77;;
71383;SDS011;67558;52.166;5.004;2023-08-07T14:03:30;34.95;;;33.65;;
71383;SDS011;67558;52.166;5.004;2023-08-07T14:05:56;29.83;;;28.83;;
71383;SDS011;67558;52.166;5.004;2023-08-07T14:08:21;29.08;;;28.08;;
71383;SDS011;67558;52.166;5.004;2023-08-07T14:10:47;29.25;;;28.45;;
71383;SDS011;67558;52.166;5.004;2023-08-07T14:13:12;29.95;;;29.10;;
71383;SDS011;67558;52.166;5.004;2023-08-07T14:15:37;29.10;;;28.20;;
71383;SDS011;67558;52.166;5.004;2023-08-07T14:18:03;32.38;;;31.30;;
71383;SDS011;67558;52.166;5.004;2023-08-07T14:20:29;30.15;;;28.77;;
71383;SDS011;67558;52.166;5.004;2023-08-07T14:22:54;30.60;;;29.38;;
71383;SDS011;67558;52.166;5.004;2023-08-07T14:25:20;27.80;;;26.80;;
71383;SDS011;67558;52.166;5.004;2023-08-07T14:27:48;31.27;;;30.23;;
71383;SDS011;67558;52.166;5.004;2023-08-07T14:30:14;30.30;;;29.15;;
71383;SDS011;67558;52.166;5.004;2023-08-07T14:32:40;31.77;;;30.67;;
71383;SDS011;67558;52.166;5.004;2023-08-07T14:35:08;33.50;;;32.45;;
71383;SDS011;67558;52.166;5.004;2023-08-07T14:37:34;29.42;;;27.98;;
71383;SDS011;67558;52.166;5.004;2023-08-07T14:39:59;29.17;;;27.95;;
71383;SDS011;67558;52.166;5.004;2023-08-07T14:42:28;28.38;;;27.27;;